sensor_id;sensor_type;location;lat;lon;timestamp;pressure;altitude;pressure_sealevel;temperature;humidity
18755;BME280;35061;47.664;9.166;2022-08-19T00:01:52;101182.45;;;17.22;100.00
18755;BME280;35061;47.664;9.166;2022-08-19T00:04:26;101191.92;;;17.23;100.00
18755;BME280;35061;47.664;9.166;2022-08-19T00:06:54;101194.80;;;17.23;100.00
18755;BME280;35061;47.664;9.166;2022-08-19T00:09:23;101201.90;;;17.22;100.00
18755;BME280;35061;47.664;9.166;2022-08-19T00:11:52;101212.69;;;17.21;100.00
18755;BME280;35061;47.664;9.166;2022-08-19T00:14:20;101217.17;;;17.22;100.00
18755;BME280;35061;47.664;9.166;2022-08-19T00:16:49;101218.74;;;17.23;100.00
18755;BME280;35061;47.664;9.166;2022-08-19T00:19:23;101210.04;;;17.23;100.00
18755;BME280;35061;47.664;9.166;2022-08-19T00:21:51;101212.43;;;17.25;100.00
18755;BME280;35061;47.664;9.166;2022-08-19T00:24:19;101197.42;;;17.26;100.00
18755;BME280;35061;47.664;9.166;2022-08-19T00:26:47;101196.63;;;17.26;100.00
18755;BME280;35061;47.664;9.166;2022-08-19T00:29:16;101199.77;;;17.28;100.00
18755;BME280;35061;47.664;9.166;2022-08-19T00:31:45;101195.30;;;17.27;100.00
18755;BME280;35061;47.664;9.166;2022-08-19T00:34:16;101200.03;;;17.30;100.00
18755;BME280;35061;47.664;9.166;2022-08-19T00:36:44;101203.21;;;17.32;100.00
18755;BME280;35061;47.664;9.166;2022-08-19T00:39:17;101199.74;;;17.34;100.00
18755;BME280;35061;47.664;9.166;2022-08-19T00:41:46;101200.55;;;17.34;100.00
18755;BME280;35061;47.664;9.166;2022-08-19T00:44:26;101203.70;;;17.36;100.00
18755;BME280;35061;47.664;9.166;2022-08-19T00:46:57;101204.74;;;17.39;100.00
18755;BME280;35061;47.664;9.166;2022-08-19T00:49:36;101199.45;;;17.43;100.00
18755;BME280;35061;47.664;9.166;2022-08-19T00:52:11;101204.45;;;17.42;100.00
18755;BME280;35061;47.664;9.166;2022-08-19T00:54:40;101205.23;;;17.43;100.00
18755;BME280;35061;47.664;9.166;2022-08-19T00:57:10;101204.71;;;17.44;100.00
18755;BME280;35061;47.664;9.166;2022-08-19T00:59:45;101196.02;;;17.44;100.00
18755;BME280;35061;47.664;9.166;2022-08-19T01:02:28;101197.09;;;17.47;100.00
18755;BME280;35061;47.664;9.166;2022-08-19T01:04:57;101201.54;;;17.48;100.00
18755;BME280;35061;47.664;9.166;2022-08-19T01:07:25;101198.34;;;17.52;100.00
18755;BME280;35061;47.664;9.166;2022-08-19T01:09:53;101202.55;;;17.51;100.00
18755;BME280;35061;47.664;9.166;2022-08-19T01:12:21;101202.29;;;17.54;100.00
18755;BME280;35061;47.664;9.166;2022-08-19T01:14:50;101197.29;;;17.55;100.00
18755;BME280;35061;47.664;9.166;2022-08-19T01:17:19;101198.07;;;17.55;100.00
18755;BME280;35061;47.664;9.166;2022-08-19T01:19:47;101193.07;;;17.56;100.00
18755;BME280;35061;47.664;9.166;2022-08-19T01:22:30;101189.37;;;17.55;100.00
18755;BME280;35061;47.664;9.166;2022-08-19T01:25:00;101179.66;;;17.53;100.00
18755;BME280;35061;47.664;9.166;2022-08-19T01:27:44;101177.54;;;17.53;100.00
18755;BME280;35061;47.664;9.166;2022-08-19T01:30:18;101176.20;;;17.60;100.00
18755;BME280;35061;47.664;9.166;2022-08-19T01:32:49;101177.51;;;17.59;100.00
18755;BME280;35061;47.664;9.166;2022-08-19T01:35:18;101172.24;;;17.57;100.00
18755;BME280;35061;47.664;9.166;2022-08-19T01:38:02;101178.03;;;17.57;100.00
18755;BME280;35061;47.664;9.166;2022-08-19T01:40:32;101177.54;;;17.53;100.00
18755;BME280;35061;47.664;9.166;2022-08-19T01:43:02;101180.45;;;17.53;100.00
18755;BME280;35061;47.664;9.166;2022-08-19T01:45:32;101183.85;;;17.52;100.00
18755;BME280;35061;47.664;9.166;2022-08-19T01:48:00;101187.55;;;17.52;100.00
18755;BME280;35061;47.664;9.166;2022-08-19T01:50:31;101179.66;;;17.53;100.00
18755;BME280;35061;47.664;9.166;2022-08-19T01:53:00;101185.98;;;17.51;100.00
18755;BME280;35061;47.664;9.166;2022-08-19T01:55:35;101183.09;;;17.51;100.00
18755;BME280;35061;47.664;9.166;2022-08-19T01:58:12;101178.88;;;17.52;100.00
18755;BME280;35061;47.664;9.166;2022-08-19T02:00:41;101166.78;;;17.54;100.00
18755;BME280;35061;47.664;9.166;2022-08-19T02:03:09;101161.74;;;17.54;100.00
18755;BME280;35061;47.664;9.166;2022-08-19T02:05:39;101148.60;;;17.53;100.00
18755;BME280;35061;47.664;9.166;2022-08-19T02:08:08;101152.29;;;17.54;100.00
18755;BME280;35061;47.664;9.166;2022-08-19T02:10:39;101156.77;;;17.55;100.00
18755;BME280;35061;47.664;9.166;2022-08-19T02:13:08;101160.99;;;17.54;100.00
18755;BME280;35061;47.664;9.166;2022-08-19T02:15:36;101156.77;;;17.55;100.00
18755;BME280;35061;47.664;9.166;2022-08-19T02:18:05;101158.34;;;17.56;100.00
18755;BME280;35061;47.664;9.166;2022-08-19T02:20:35;101155.70;;;17.58;100.00
18755;BME280;35061;47.664;9.166;2022-08-19T02:23:03;101155.40;;;17.62;100.00
18755;BME280;35061;47.664;9.166;2022-08-19T02:25:40;101158.02;;;17.65;100.00
18755;BME280;35061;47.664;9.166;2022-08-19T02:28:08;101167.20;;;17.69;100.00
18755;BME280;35061;47.664;9.166;2022-08-19T02:30:35;101172.99;;;17.69;100.00
18755;BME280;35061;47.664;9.166;2022-08-19T02:33:04;101161.16;;;17.67;100.00
18755;BME280;35061;47.664;9.166;2022-08-19T02:35:32;101161.38;;;17.69;100.00
18755;BME280;35061;47.664;9.166;2022-08-19T02:37:59;101160.63;;;17.69;100.00
18755;BME280;35061;47.664;9.166;2022-08-19T02:40:51;101168.52;;;17.68;100.00
18755;BME280;35061;47.664;9.166;2022-08-19T02:43:20;101165.87;;;17.70;100.00
18755;BME280;35061;47.664;9.166;2022-08-19T02:45:49;101169.56;;;17.71;100.00
18755;BME280;35061;47.664;9.166;2022-08-19T02:48:18;101171.91;;;17.72;100.00
18755;BME280;35061;47.664;9.166;2022-08-19T02:50:49;101174.27;;;17.74;100.00
18755;BME280;35061;47.664;9.166;2022-08-19T02:53:22;101173.48;;;17.74;100.00
18755;BME280;35061;47.664;9.166;2022-08-19T02:55:51;101175.09;;;17.75;100.00
18755;BME280;35061;47.664;9.166;2022-08-19T02:58:20;101177.96;;;17.75;100.00
18755;BME280;35061;47.664;9.166;2022-08-19T03:00:52;101170.05;;;17.75;100.00
18755;BME280;35061;47.664;9.166;2022-08-19T03:03:20;101167.70;;;17.74;100.00
18755;BME280;35061;47.664;9.166;2022-08-19T03:05:48;101165.05;;;17.76;100.00
18755;BME280;35061;47.664;9.166;2022-08-19T03:08:23;101166.62;;;17.77;100.00
18755;BME280;35061;47.664;9.166;2022-08-19T03:10:53;101164.26;;;17.75;100.00
18755;BME280;35061;47.664;9.166;2022-08-19T03:13:21;101172.66;;;17.79;100.00
18755;BME280;35061;47.664;9.166;2022-08-19T03:15:49;101159.45;;;17.83;100.00
18755;BME280;35061;47.664;9.166;2022-08-19T03:18:17;101168.41;;;17.85;100.00
18755;BME280;35061;47.664;9.166;2022-08-19T03:20:47;101159.72;;;17.85;100.00
18755;BME280;35061;47.664;9.166;2022-08-19T03:23:16;101165.50;;;17.85;100.00
18755;BME280;35061;47.664;9.166;2022-08-19T03:25:46;101166.29;;;17.86;100.00
18755;BME280;35061;47.664;9.166;2022-08-19T03:28:34;101174.20;;;17.85;100.00
18755;BME280;35061;47.664;9.166;2022-08-19T03:31:12;101167.63;;;17.85;100.00
18755;BME280;35061;47.664;9.166;2022-08-19T03:34:02;101177.34;;;17.88;100.00
18755;BME280;35061;47.664;9.166;2022-08-19T03:36:33;101171.00;;;17.89;100.00
18755;BME280;35061;47.664;9.166;2022-08-19T03:39:01;101173.68;;;17.87;100.00
18755;BME280;35061;47.664;9.166;2022-08-19T03:41:32;101170.77;;;17.87;100.00
18755;BME280;35061;47.664;9.166;2022-08-19T03:44:19;101180.22;;;17.88;100.00
18755;BME280;35061;47.664;9.166;2022-08-19T03:46:57;101176.55;;;17.87;100.00
18755;BME280;35061;47.664;9.166;2022-08-19T03:49:29;101174.98;;;17.86;100.00
18755;BME280;35061;47.664;9.166;2022-08-19T03:51:58;101165.70;;;17.93;100.00
18755;BME280;35061;47.664;9.166;2022-08-19T03:54:28;101165.99;;;17.95;100.00
18755;BME280;35061;47.664;9.166;2022-08-19T03:56:56;101161.94;;;18.10;100.00
18755;BME280;35061;47.664;9.166;2022-08-19T03:59:30;101158.48;;;18.17;100.00
18755;BME280;35061;47.664;9.166;2022-08-19T04:02:00;101143.46;;;18.13;100.00
18755;BME280;35061;47.664;9.166;2022-08-19T04:04:29;101144.31;;;18.08;100.00
18755;BME280;35061;47.664;9.166;2022-08-19T04:06:57;101143.79;;;18.04;100.00
18755;BME280;35061;47.664;9.166;2022-08-19T04:09:25;101139.05;;;18.00;100.00
18755;BME280;35061;47.664;9.166;2022-08-19T04:11:55;101135.13;;;17.98;100.00
18755;BME280;35061;47.664;9.166;2022-08-19T04:14:26;101137.02;;;17.95;100.00
18755;BME280;35061;47.664;9.166;2022-08-19T04:16:59;101130.94;;;17.93;100.00
18755;BME280;35061;47.664;9.166;2022-08-19T04:19:29;101129.93;;;17.91;100.00
18755;BME280;35061;47.664;9.166;2022-08-19T04:21:58;101125.15;;;17.93;100.00
18755;BME280;35061;47.664;9.166;2022-08-19T04:24:26;101122.02;;;17.91;100.00
18755;BME280;35061;47.664;9.166;2022-08-19T04:26:54;101132.84;;;17.91;100.00
18755;BME280;35061;47.664;9.166;2022-08-19T04:29:24;101133.33;;;17.95;100.00
18755;BME280;35061;47.664;9.166;2022-08-19T04:31:54;101141.47;;;17.96;100.00
18755;BME280;35061;47.664;9.166;2022-08-19T04:34:26;101143.30;;;17.99;100.00
18755;BME280;35061;47.664;9.166;2022-08-19T04:36:56;101154.88;;;17.99;100.00
18755;BME280;35061;47.664;9.166;2022-08-19T04:39:28;101159.88;;;17.99;100.00
18755;BME280;35061;47.664;9.166;2022-08-19T04:42:17;101167.79;;;18.04;100.00
18755;BME280;35061;47.664;9.166;2022-08-19T04:45:10;101159.09;;;17.98;100.00
18755;BME280;35061;47.664;9.166;2022-08-19T04:47:40;101171.45;;;17.99;100.00
18755;BME280;35061;47.664;9.166;2022-08-19T04:50:16;101174.89;;;18.03;100.00
18755;BME280;35061;47.664;9.166;2022-08-19T04:52:44;101173.25;;;18.13;100.00
18755;BME280;35061;47.664;9.166;2022-08-19T04:55:13;101181.13;;;18.13;100.00
18755;BME280;35061;47.664;9.166;2022-08-19T04:57:41;101190.32;;;18.17;100.00
18755;BME280;35061;47.664;9.166;2022-08-19T05:00:10;101182.48;;;18.12;100.00
18755;BME280;35061;47.664;9.166;2022-08-19T05:02:38;101179.56;;;18.12;100.00
18755;BME280;35061;47.664;9.166;2022-08-19T05:05:06;101188.79;;;18.10;100.00
18755;BME280;35061;47.664;9.166;2022-08-19T05:07:35;101197.23;;;18.08;100.00
18755;BME280;35061;47.664;9.166;2022-08-19T05:10:05;101213.80;;;18.13;100.00
18755;BME280;35061;47.664;9.166;2022-08-19T05:12:33;101202.26;;;18.08;100.00
18755;BME280;35061;47.664;9.166;2022-08-19T05:15:02;101204.13;;;18.05;100.00
18755;BME280;35061;47.664;9.166;2022-08-19T05:17:31;101202.81;;;18.00;100.00
18755;BME280;35061;47.664;9.166;2022-08-19T05:20:05;101212.00;;;17.99;100.00
18755;BME280;35061;47.664;9.166;2022-08-19T05:22:52;101213.05;;;18.07;100.00
18755;BME280;35061;47.664;9.166;2022-08-19T05:25:21;101215.44;;;18.09;100.00
18755;BME280;35061;47.664;9.166;2022-08-19T05:27:49;101217.01;;;18.10;100.00
18755;BME280;35061;47.664;9.166;2022-08-19T05:30:17;101233.62;;;18.04;100.00
18755;BME280;35061;47.664;9.166;2022-08-19T05:33:05;101236.76;;;18.00;100.00
18755;BME280;35061;47.664;9.166;2022-08-19T05:35:33;101239.47;;;17.92;100.00
18755;BME280;35061;47.664;9.166;2022-08-19T05:38:01;101241.63;;;17.86;100.00
18755;BME280;35061;47.664;9.166;2022-08-19T05:40:29;101230.35;;;17.77;100.00
18755;BME280;35061;47.664;9.166;2022-08-19T05:42:56;101236.43;;;17.67;100.00
18755;BME280;35061;47.664;9.166;2022-08-19T05:45:24;101233.59;;;17.62;100.00
18755;BME280;35061;47.664;9.166;2022-08-19T05:47:52;101231.23;;;17.54;100.00
18755;BME280;35061;47.664;9.166;2022-08-19T05:50:21;101237.05;;;17.49;100.00
18755;BME280;35061;47.664;9.166;2022-08-19T05:52:48;101230.48;;;17.48;100.00
18755;BME280;35061;47.664;9.166;2022-08-19T05:55:16;101226.30;;;17.43;100.00
18755;BME280;35061;47.664;9.166;2022-08-19T05:57:47;101229.20;;;17.38;100.00
18755;BME280;35061;47.664;9.166;2022-08-19T06:00:16;101227.63;;;17.37;100.00
18755;BME280;35061;47.664;9.166;2022-08-19T06:02:50;101221.59;;;17.35;100.00
18755;BME280;35061;47.664;9.166;2022-08-19T06:05:18;101213.45;;;17.33;100.00
18755;BME280;35061;47.664;9.166;2022-08-19T06:07:47;101214.49;;;17.30;100.00
18755;BME280;35061;47.664;9.166;2022-08-19T06:10:15;101207.13;;;17.29;100.00
18755;BME280;35061;47.664;9.166;2022-08-19T06:12:43;101213.48;;;17.27;100.00
18755;BME280;35061;47.664;9.166;2022-08-19T06:15:13;101208.44;;;17.28;100.00
18755;BME280;35061;47.664;9.166;2022-08-19T06:17:42;101213.18;;;17.25;100.00
18755;BME280;35061;47.664;9.166;2022-08-19T06:20:13;101217.70;;;17.26;100.00
18755;BME280;35061;47.664;9.166;2022-08-19T06:22:46;101219.79;;;17.26;100.00
18755;BME280;35061;47.664;9.166;2022-08-19T06:25:14;101228.98;;;17.30;100.00
18755;BME280;35061;47.664;9.166;2022-08-19T06:27:43;101220.57;;;17.32;100.00
18755;BME280;35061;47.664;9.166;2022-08-19T06:30:31;101225.02;;;17.33;100.00
18755;BME280;35061;47.664;9.166;2022-08-19T06:32:59;101226.36;;;17.32;100.00
18755;BME280;35061;47.664;9.166;2022-08-19T06:35:26;101228.16;;;17.35;100.00
18755;BME280;35061;47.664;9.166;2022-08-19T06:37:56;101216.84;;;17.37;100.00
18755;BME280;35061;47.664;9.166;2022-08-19T06:40:24;101222.89;;;17.39;100.00
18755;BME280;35061;47.664;9.166;2022-08-19T06:42:54;101219.72;;;17.37;100.00
18755;BME280;35061;47.664;9.166;2022-08-19T06:45:26;101216.58;;;17.35;100.00
18755;BME280;35061;47.664;9.166;2022-08-19T06:48:01;101221.29;;;17.38;100.00
18755;BME280;35061;47.664;9.166;2022-08-19T06:50:29;101217.89;;;17.40;100.00
18755;BME280;35061;47.664;9.166;2022-08-19T06:52:56;101225.77;;;17.39;100.00
18755;BME280;35061;47.664;9.166;2022-08-19T06:55:29;101218.15;;;17.42;100.00
18755;BME280;35061;47.664;9.166;2022-08-19T06:58:02;101217.86;;;17.46;100.00
18755;BME280;35061;47.664;9.166;2022-08-19T07:00:31;101223.38;;;17.49;100.00
18755;BME280;35061;47.664;9.166;2022-08-19T07:02:59;101227.05;;;17.50;100.00
18755;BME280;35061;47.664;9.166;2022-08-19T07:05:39;101224.95;;;17.50;100.00
18755;BME280;35061;47.664;9.166;2022-08-19T07:08:11;101222.56;;;17.49;100.00
18755;BME280;35061;47.664;9.166;2022-08-19T07:10:43;101229.66;;;17.53;100.00
18755;BME280;35061;47.664;9.166;2022-08-19T07:13:11;101223.09;;;17.53;100.00
18755;BME280;35061;47.664;9.166;2022-08-19T07:15:39;101223.35;;;17.55;100.00
18755;BME280;35061;47.664;9.166;2022-08-19T07:18:08;101223.09;;;17.58;100.00
18755;BME280;35061;47.664;9.166;2022-08-19T07:20:37;101223.84;;;17.59;100.00
18755;BME280;35061;47.664;9.166;2022-08-19T07:23:07;101239.38;;;17.62;100.00
18755;BME280;35061;47.664;9.166;2022-08-19T07:25:41;101243.04;;;17.62;100.00
18755;BME280;35061;47.664;9.166;2022-08-19T07:28:18;101243.04;;;17.62;100.00
18755;BME280;35061;47.664;9.166;2022-08-19T07:30:50;101249.87;;;17.65;100.00
18755;BME280;35061;47.664;9.166;2022-08-19T07:33:18;101252.78;;;17.65;100.00
18755;BME280;35061;47.664;9.166;2022-08-19T07:35:46;101252.26;;;17.66;100.00
18755;BME280;35061;47.664;9.166;2022-08-19T07:38:15;101255.66;;;17.65;100.00
18755;BME280;35061;47.664;9.166;2022-08-19T07:40:44;101250.69;;;17.65;100.00
18755;BME280;35061;47.664;9.166;2022-08-19T21:15:14;101684.88;;;17.14;100.00
18755;BME280;35061;47.664;9.166;2022-08-19T21:17:42;101675.66;;;17.10;100.00
18755;BME280;35061;47.664;9.166;2022-08-19T21:20:10;101681.74;;;17.12;100.00
18755;BME280;35061;47.664;9.166;2022-08-19T21:22:39;101674.88;;;17.09;100.00
18755;BME280;35061;47.664;9.166;2022-08-19T21:25:06;101681.48;;;17.15;100.00
18755;BME280;35061;47.664;9.166;2022-08-19T21:27:34;101682.79;;;17.09;100.00
18755;BME280;35061;47.664;9.166;2022-08-19T21:30:03;101685.93;;;17.11;100.00
18755;BME280;35061;47.664;9.166;2022-08-19T21:32:31;101684.39;;;17.15;100.00
18755;BME280;35061;47.664;9.166;2022-08-19T21:34:59;101692.01;;;17.19;100.00
18755;BME280;35061;47.664;9.166;2022-08-19T21:37:28;101682.30;;;17.16;100.00
18755;BME280;35061;47.664;9.166;2022-08-19T21:39:56;101688.05;;;17.10;100.00
18755;BME280;35061;47.664;9.166;2022-08-19T21:42:24;101691.45;;;17.09;100.00
18755;BME280;35061;47.664;9.166;2022-08-19T21:44:51;101689.88;;;17.08;100.00
18755;BME280;35061;47.664;9.166;2022-08-19T21:47:20;101698.32;;;17.11;100.00
18755;BME280;35061;47.664;9.166;2022-08-19T21:49:48;101693.02;;;17.04;100.00
18755;BME280;35061;47.664;9.166;2022-08-19T21:52:23;101689.06;;;17.07;100.00
18755;BME280;35061;47.664;9.166;2022-08-19T21:54:51;101696.98;;;17.07;100.00
18755;BME280;35061;47.664;9.166;2022-08-19T21:57:19;101699.86;;;17.07;100.00
18755;BME280;35061;47.664;9.166;2022-08-19T21:59:47;101701.20;;;17.11;100.00
18755;BME280;35061;47.664;9.166;2022-08-19T22:02:14;101700.41;;;17.11;100.00
18755;BME280;35061;47.664;9.166;2022-08-19T22:04:48;101707.48;;;17.04;100.00
18755;BME280;35061;47.664;9.166;2022-08-19T22:07:16;101705.65;;;17.07;100.00
18755;BME280;35061;47.664;9.166;2022-08-19T22:09:46;101719.09;;;17.10;100.00
18755;BME280;35061;47.664;9.166;2022-08-19T22:12:41;101706.69;;;17.09;100.00
18755;BME280;35061;47.664;9.166;2022-08-19T22:15:19;101711.43;;;17.07;100.00
18755;BME280;35061;47.664;9.166;2022-08-19T22:17:48;101704.86;;;17.12;100.00
18755;BME280;35061;47.664;9.166;2022-08-19T22:20:21;101706.20;;;17.16;100.00
18755;BME280;35061;47.664;9.166;2022-08-19T22:22:52;101699.37;;;17.20;100.00
18755;BME280;35061;47.664;9.166;2022-08-19T22:25:26;101709.96;;;17.28;100.00
18755;BME280;35061;47.664;9.166;2022-08-19T22:27:58;101704.92;;;17.29;100.00
18755;BME280;35061;47.664;9.166;2022-08-19T22:30:28;101716.53;;;17.35;100.00
18755;BME280;35061;47.664;9.166;2022-08-19T22:33:02;101710.52;;;17.38;100.00
18755;BME280;35061;47.664;9.166;2022-08-19T22:35:33;101711.83;;;17.37;100.00
18755;BME280;35061;47.664;9.166;2022-08-19T22:38:03;101717.61;;;17.37;100.00
18755;BME280;35061;47.664;9.166;2022-08-19T22:40:35;101711.30;;;17.39;100.00
18755;BME280;35061;47.664;9.166;2022-08-19T22:43:06;101711.30;;;17.39;100.00
18755;BME280;35061;47.664;9.166;2022-08-19T22:45:34;101711.07;;;17.42;100.00
18755;BME280;35061;47.664;9.166;2022-08-19T22:48:05;101713.95;;;17.42;100.00
18755;BME280;35061;47.664;9.166;2022-08-19T22:50:37;101699.20;;;17.40;100.00
18755;BME280;35061;47.664;9.166;2022-08-19T22:53:07;101702.11;;;17.46;100.00
18755;BME280;35061;47.664;9.166;2022-08-19T22:55:37;101713.43;;;17.50;100.00
18755;BME280;35061;47.664;9.166;2022-08-19T22:58:05;101700.28;;;17.49;100.00
18755;BME280;35061;47.664;9.166;2022-08-19T23:00:33;101700.02;;;17.52;100.00
18755;BME280;35061;47.664;9.166;2022-08-19T23:03:01;101698.71;;;17.53;100.00
18755;BME280;35061;47.664;9.166;2022-08-19T23:05:29;101701.10;;;17.55;100.00
18755;BME280;35061;47.664;9.166;2022-08-19T23:07:57;101702.67;;;17.56;100.00
18755;BME280;35061;47.664;9.166;2022-08-19T23:10:25;101701.36;;;17.57;99.26
18755;BME280;35061;47.664;9.166;2022-08-19T23:12:57;101705.32;;;17.60;99.37
18755;BME280;35061;47.664;9.166;2022-08-19T23:15:28;101703.20;;;17.60;100.00
18755;BME280;35061;47.664;9.166;2022-08-19T23:17:59;101711.14;;;17.65;100.00
18755;BME280;35061;47.664;9.166;2022-08-19T23:20:31;101705.61;;;17.67;99.11
18755;BME280;35061;47.664;9.166;2022-08-19T23:23:02;101694.04;;;17.73;99.36
18755;BME280;35061;47.664;9.166;2022-08-19T23:25:31;101700.34;;;17.77;97.10
18755;BME280;35061;47.664;9.166;2022-08-19T23:28:00;101699.30;;;17.86;96.89
18755;BME280;35061;47.664;9.166;2022-08-19T23:30:47;101690.63;;;17.92;97.06
18755;BME280;35061;47.664;9.166;2022-08-19T23:33:21;101693.28;;;17.95;95.65
18755;BME280;35061;47.664;9.166;2022-08-19T23:36:13;101693.28;;;17.95;95.00
18755;BME280;35061;47.664;9.166;2022-08-19T23:38:44;101682.72;;;17.98;94.33
18755;BME280;35061;47.664;9.166;2022-08-19T23:41:14;101696.69;;;17.99;93.56
18755;BME280;35061;47.664;9.166;2022-08-19T23:43:43;101696.95;;;18.02;94.52
18755;BME280;35061;47.664;9.166;2022-08-19T23:46:13;101695.93;;;18.05;95.09
18755;BME280;35061;47.664;9.166;2022-08-19T23:48:53;101697.77;;;18.02;95.15
18755;BME280;35061;47.664;9.166;2022-08-19T23:51:22;101701.72;;;18.05;95.12
18755;BME280;35061;47.664;9.166;2022-08-19T23:53:50;101694.04;;;18.02;92.64
18755;BME280;35061;47.664;9.166;2022-08-19T23:56:17;101695.93;;;18.05;94.30
18755;BME280;35061;47.664;9.166;2022-08-19T23:58:45;101695.38;;;18.00;94.09
